createdAt,value
2022-08-28T00:01:04.841Z,15.15
2022-08-28T00:03:32.837Z,17.63
2022-08-28T00:06:01.773Z,19.67
2022-08-28T00:08:32.176Z,20.73
2022-08-28T00:11:00.184Z,20.55
2022-08-28T00:13:27.860Z,20.30
2022-08-28T00:16:04.931Z,19.23
2022-08-28T00:18:35.879Z,15.20
2022-08-28T00:21:03.859Z,16.92
2022-08-28T00:23:42.196Z,17.95
2022-08-28T00:26:32.196Z,12.38
2022-08-28T00:28:59.515Z,14.60
2022-08-28T00:31:26.811Z,16.73
2022-08-28T00:33:56.579Z,18.23
2022-08-28T00:36:27.578Z,19.02
2022-08-28T00:38:54.714Z,16.27
2022-08-28T00:41:33.498Z,13.65
2022-08-28T00:44:17.748Z,13.65
2022-08-28T00:46:54.518Z,15.27
2022-08-28T00:49:25.559Z,19.70
2022-08-28T00:52:11.734Z,16.98
2022-08-28T00:54:59.415Z,20.15
2022-08-28T00:57:41.392Z,16.70
2022-08-28T01:00:17.337Z,21.98
2022-08-28T01:02:44.626Z,18.08
2022-08-28T01:05:14.451Z,18.92
2022-08-28T01:07:43.072Z,18.50
2022-08-28T01:10:17.242Z,19.15
2022-08-28T01:12:46.247Z,15.57
2022-08-28T01:15:17.909Z,12.07
2022-08-28T01:17:49.541Z,16.52
2022-08-28T01:20:22.194Z,20.65
2022-08-28T01:23:29.192Z,16.98
2022-08-28T01:25:58.136Z,14.75
2022-08-28T01:28:25.383Z,13.88
2022-08-28T01:30:52.702Z,22.45
2022-08-28T01:33:28.248Z,14.80
2022-08-28T01:35:59.490Z,21.25
2022-08-28T01:38:28.175Z,21.08
2022-08-28T01:40:57.974Z,19.10
2022-08-28T01:43:29.223Z,13.95
2022-08-28T01:46:02.147Z,16.23
2022-08-28T01:48:32.349Z,20.30
2022-08-28T01:51:02.526Z,18.40
2022-08-28T01:53:33.074Z,14.63
2022-08-28T01:56:04.840Z,17.60
2022-08-28T01:58:37.481Z,20.13
2022-08-28T02:01:17.186Z,19.40
2022-08-28T02:03:45.913Z,21.13
2022-08-28T02:06:15.866Z,17.25
2022-08-28T02:08:46.869Z,21.80
2022-08-28T02:11:14.138Z,16.55
2022-08-28T02:13:44.768Z,19.10
2022-08-28T02:16:12.923Z,12.77
2022-08-28T02:18:46.727Z,16.48
2022-08-28T02:21:19.007Z,22.58
2022-08-28T02:23:49.960Z,19.92
2022-08-28T02:26:17.413Z,22.58
2022-08-28T02:28:44.846Z,15.02
2022-08-28T02:31:15.219Z,19.30
2022-08-28T02:33:45.061Z,21.85
2022-08-28T02:36:21.693Z,19.98
2022-08-28T02:38:48.885Z,20.70
2022-08-28T02:41:16.845Z,16.63
2022-08-28T02:43:48.716Z,17.00
2022-08-28T02:46:17.048Z,22.60
2022-08-28T02:48:45.678Z,18.35
2022-08-28T02:51:15.227Z,21.00
2022-08-28T02:53:43.668Z,18.90
2022-08-28T02:56:10.767Z,23.50
2022-08-28T02:58:39.605Z,17.77
2022-08-28T03:01:10.214Z,15.73
2022-08-28T03:03:41.738Z,17.15
2022-08-28T03:06:14.122Z,19.48
2022-08-28T03:08:42.585Z,18.95
2022-08-28T03:11:10.723Z,20.55
2022-08-28T03:13:38.752Z,24.50
2022-08-28T03:16:11.564Z,17.40
2022-08-28T03:18:41.421Z,21.02
2022-08-28T03:21:09.213Z,19.45
2022-08-28T03:23:37.613Z,22.90
2022-08-28T03:26:14.289Z,18.17
2022-08-28T03:28:44.434Z,16.05
2022-08-28T03:31:16.376Z,16.58
2022-08-28T03:33:45.006Z,22.27
2022-08-28T03:36:15.019Z,16.92
2022-08-28T03:38:42.259Z,17.13
2022-08-28T03:41:15.203Z,20.38
2022-08-28T03:43:44.475Z,16.33
2022-08-28T03:46:19.387Z,20.48
2022-08-28T03:48:47.769Z,16.42
2022-08-28T03:51:19.252Z,21.33
2022-08-28T03:53:51.157Z,16.60
2022-08-28T03:56:24.390Z,18.95
2022-08-28T03:58:55.918Z,16.75
2022-08-28T04:01:23.400Z,16.08
2022-08-28T04:03:54.857Z,15.90
2022-08-28T04:06:23.061Z,16.40
2022-08-28T04:08:51.178Z,19.80
2022-08-28T04:11:19.227Z,20.80
2022-08-28T04:13:50.084Z,15.50
2022-08-28T04:16:25.084Z,18.77
2022-08-28T04:18:52.237Z,20.02
2022-08-28T04:21:26.245Z,22.50
2022-08-28T04:23:54.307Z,14.23
2022-08-28T04:26:25.111Z,12.38
2022-08-28T04:28:54.779Z,16.40
2022-08-28T04:31:31.700Z,15.40
2022-08-28T04:34:06.588Z,18.17
2022-08-28T04:36:34.711Z,18.83
2022-08-28T04:39:05.346Z,14.40
2022-08-28T04:41:32.623Z,15.52
2022-08-28T04:44:00.346Z,18.70
2022-08-28T04:46:31.169Z,18.45
2022-08-28T04:48:59.908Z,15.85
2022-08-28T04:51:28.489Z,13.95
2022-08-28T04:53:56.311Z,20.15
2022-08-28T04:56:24.693Z,13.07
2022-08-28T04:58:51.963Z,14.43
2022-08-28T05:01:22.133Z,13.73
2022-08-28T05:03:55.476Z,17.45
2022-08-28T05:06:23.077Z,11.95
2022-08-28T05:08:50.540Z,11.77
2022-08-28T05:11:34.624Z,16.20
2022-08-28T05:14:06.478Z,11.88
2022-08-28T05:16:40.175Z,13.07
2022-08-28T05:19:07.770Z,14.27
2022-08-28T05:21:35.216Z,12.05
2022-08-28T05:24:03.328Z,12.77
2022-08-28T05:26:30.549Z,12.65
2022-08-28T05:29:00.668Z,12.63
2022-08-28T05:31:30.814Z,14.00
2022-08-28T05:34:01.543Z,17.83
2022-08-28T05:36:32.896Z,13.82
2022-08-28T05:39:02.371Z,11.48
2022-08-28T05:41:31.383Z,14.13
2022-08-28T05:44:01.378Z,12.70
2022-08-28T05:46:29.559Z,13.23
2022-08-28T05:49:00.667Z,9.20
2022-08-28T05:51:29.615Z,14.88
2022-08-28T05:53:58.006Z,11.38
2022-08-28T05:56:30.373Z,11.00
2022-08-28T05:59:06.190Z,11.05
2022-08-28T06:01:37.298Z,12.93
2022-08-28T06:04:10.532Z,14.65
2022-08-28T06:06:42.271Z,10.40
2022-08-28T06:09:13.345Z,7.35
2022-08-28T06:11:46.440Z,8.57
2022-08-28T06:14:17.465Z,9.70
2022-08-28T06:17:00.551Z,10.50
2022-08-28T06:19:32.672Z,10.82
2022-08-28T06:22:07.038Z,10.13
2022-08-28T06:24:36.047Z,11.43
2022-08-28T06:27:06.038Z,10.50
2022-08-28T06:29:36.956Z,8.57
2022-08-28T06:32:05.124Z,12.18
2022-08-28T06:34:33.969Z,13.55
2022-08-28T06:37:04.114Z,13.60
2022-08-28T06:39:31.966Z,9.73
2022-08-28T06:42:01.734Z,10.00
2022-08-28T06:44:32.570Z,13.32
2022-08-28T06:47:00.724Z,12.73
2022-08-28T06:49:28.383Z,12.43
2022-08-28T06:51:58.832Z,8.35
2022-08-28T06:54:26.734Z,10.15
2022-08-28T06:56:57.248Z,10.10
2022-08-28T06:59:31.258Z,5.20
2022-08-28T07:01:59.030Z,9.35
2022-08-28T07:04:28.903Z,8.10
2022-08-28T07:07:03.882Z,8.48
2022-08-28T07:09:30.978Z,7.40
2022-08-28T07:11:58.507Z,6.78
2022-08-28T07:14:29.213Z,11.40
2022-08-28T07:16:57.445Z,12.95
2022-08-28T07:19:24.673Z,10.32
2022-08-28T07:21:51.993Z,11.27
2022-08-28T07:24:19.804Z,10.85
2022-08-28T07:26:48.130Z,6.78
2022-08-28T07:29:19.179Z,7.65
2022-08-28T07:31:50.550Z,11.73
2022-08-28T07:34:21.213Z,9.70
2022-08-28T07:36:52.060Z,7.32
2022-08-28T07:39:19.753Z,8.20
2022-08-28T07:41:51.497Z,7.47
2022-08-28T07:44:37.389Z,10.95
2022-08-28T07:47:09.729Z,6.47
2022-08-28T07:49:48.863Z,8.20
2022-08-28T07:52:16.520Z,9.40
2022-08-28T07:54:44.019Z,11.02
2022-08-28T07:57:29.577Z,10.00
2022-08-28T07:59:57.108Z,9.15
2022-08-28T08:02:24.567Z,6.53
2022-08-28T08:04:53.466Z,7.85
2022-08-28T08:07:20.911Z,10.40
2022-08-28T08:09:50.500Z,9.13
2022-08-28T08:12:22.193Z,9.38
2022-08-28T08:14:52.115Z,13.32
2022-08-28T08:17:22.293Z,5.53
2022-08-28T08:19:50.230Z,10.65
2022-08-28T08:22:18.637Z,7.35
2022-08-28T08:24:49.460Z,8.23
2022-08-28T08:27:16.776Z,7.45
2022-08-28T08:29:45.104Z,7.50
2022-08-28T08:32:13.039Z,7.47
2022-08-28T08:34:43.233Z,10.27
2022-08-28T08:39:42.183Z,11.35
2022-08-28T08:42:29.378Z,6.25
2022-08-28T08:45:00.520Z,8.45
2022-08-28T08:47:52.916Z,10.02
2022-08-28T08:50:26.923Z,9.18
2022-08-28T08:53:16.145Z,13.20
2022-08-28T08:55:54.423Z,9.43
2022-08-28T08:58:46.989Z,7.00
2022-08-28T09:01:39.293Z,10.63
2022-08-28T09:07:06.350Z,5.20
2022-08-28T09:09:41.981Z,8.02
2022-08-28T09:12:20.801Z,8.50
2022-08-28T09:15:06.438Z,7.78
2022-08-28T09:17:39.523Z,5.75
2022-08-28T09:20:10.059Z,4.55
2022-08-28T09:22:42.211Z,5.22
2022-08-28T09:25:15.182Z,6.80
2022-08-28T09:27:48.115Z,8.48
2022-08-28T09:30:15.906Z,6.00
2022-08-28T09:32:53.128Z,7.70
2022-08-28T09:35:33.000Z,5.97
2022-08-28T09:38:20.764Z,8.10
2022-08-28T09:41:27.879Z,8.48
2022-08-28T09:43:55.732Z,9.73
2022-08-28T09:46:29.415Z,6.78
2022-08-28T09:49:13.550Z,8.50
2022-08-28T09:51:41.642Z,7.00
2022-08-28T09:54:19.590Z,6.00
2022-08-28T09:56:47.607Z,10.95
2022-08-28T09:59:21.470Z,9.25
2022-08-28T10:02:10.665Z,8.93
2022-08-28T10:04:40.898Z,8.35
2022-08-28T10:07:19.386Z,6.55
2022-08-28T10:10:17.934Z,5.75
2022-08-28T10:13:02.619Z,7.05
2022-08-28T10:15:54.576Z,10.13
2022-08-28T10:18:39.976Z,9.27
2022-08-28T10:21:30.561Z,5.93
2022-08-28T10:24:09.960Z,6.30
2022-08-28T10:26:55.581Z,6.47
2022-08-28T10:29:38.436Z,6.35
2022-08-28T10:34:57.440Z,6.30
2022-08-28T10:37:41.785Z,6.45
2022-08-28T10:40:13.349Z,8.38
2022-08-28T10:42:51.546Z,6.05
2022-08-28T10:45:28.172Z,4.97
2022-08-28T10:48:00.378Z,5.82
2022-08-28T10:50:33.435Z,6.18
2022-08-28T10:53:06.445Z,4.95
2022-08-28T10:55:42.556Z,7.70
2022-08-28T10:58:24.350Z,4.97
2022-08-28T11:01:02.740Z,6.13
2022-08-28T11:03:38.341Z,6.25
2022-08-28T11:06:35.520Z,4.80
2022-08-28T11:09:26.653Z,4.65
2022-08-28T11:12:02.384Z,8.38
2022-08-28T11:14:39.387Z,6.32
2022-08-28T11:17:27.953Z,9.05
2022-08-28T11:20:14.013Z,8.00
2022-08-28T11:22:50.615Z,6.70
2022-08-28T11:25:35.470Z,16.42
2022-08-28T11:28:27.252Z,6.13
2022-08-28T11:31:06.987Z,6.90
2022-08-28T11:33:39.373Z,6.32
2022-08-28T11:36:23.715Z,4.32
2022-08-28T11:38:57.754Z,6.22
2022-08-28T11:41:37.187Z,4.95
2022-08-28T11:44:10.955Z,6.78
2022-08-28T11:46:41.372Z,9.15
2022-08-28T11:49:27.034Z,8.05
2022-08-28T11:52:31.863Z,5.40
2022-08-28T11:55:30.248Z,4.97
2022-08-28T12:03:10.302Z,3.97
2022-08-28T12:05:45.395Z,8.23
2022-08-28T12:08:35.881Z,8.88
2022-08-28T12:11:06.087Z,5.32
2022-08-28T12:13:52.669Z,10.80
2022-08-28T12:16:19.968Z,8.90
2022-08-28T12:18:47.054Z,8.02
2022-08-28T12:21:23.523Z,7.22
2022-08-28T12:24:16.158Z,9.18
2022-08-28T12:26:51.042Z,6.43
2022-08-28T12:29:33.066Z,6.63
2022-08-28T12:32:22.139Z,11.30
2022-08-28T12:35:07.371Z,6.65
2022-08-28T12:37:52.668Z,6.72
2022-08-28T12:40:34.918Z,5.38
2022-08-28T12:43:08.979Z,5.82
2022-08-28T12:45:53.738Z,7.65
2022-08-28T12:48:34.314Z,9.85
2022-08-28T12:51:09.634Z,7.07
2022-08-28T12:53:43.908Z,8.25
2022-08-28T12:58:44.631Z,4.53
2022-08-28T13:01:29.032Z,6.70
2022-08-28T13:04:03.497Z,9.23
2022-08-28T13:06:38.820Z,6.22
2022-08-28T13:09:25.512Z,7.50
2022-08-28T13:11:53.083Z,4.35
2022-08-28T13:14:43.464Z,8.00
2022-08-28T13:17:13.418Z,8.43
2022-08-28T13:19:41.388Z,9.40
2022-08-28T13:22:28.840Z,5.68
2022-08-28T13:25:02.898Z,6.93
2022-08-28T13:27:33.489Z,5.40
2022-08-28T13:30:08.268Z,6.10
2022-08-28T13:32:40.538Z,10.05
2022-08-28T13:35:29.747Z,7.85
2022-08-28T13:38:00.306Z,6.90
2022-08-28T13:40:59.787Z,5.88
2022-08-28T13:43:30.920Z,4.85
2022-08-28T13:46:02.738Z,6.95
2022-08-28T13:48:32.774Z,9.20
2022-08-28T13:51:09.100Z,5.18
2022-08-28T13:53:41.613Z,8.57
2022-08-28T13:56:24.656Z,7.32
2022-08-28T13:58:57.420Z,10.52
2022-08-28T14:01:49.021Z,5.55
2022-08-28T14:04:16.878Z,10.30
2022-08-28T14:06:45.103Z,4.65
2022-08-28T14:09:18.038Z,6.65
2022-08-28T14:11:47.181Z,4.55
2022-08-28T14:14:14.963Z,11.75
2022-08-28T14:16:46.225Z,4.93
2022-08-28T14:19:19.449Z,6.15
2022-08-28T14:21:47.150Z,6.28
2022-08-28T14:24:14.941Z,5.63
2022-08-28T14:26:42.155Z,5.65
2022-08-28T14:29:13.936Z,7.90
2022-08-28T14:31:51.976Z,5.93
2022-08-28T14:34:22.898Z,5.93
2022-08-28T14:36:55.173Z,5.78
2022-08-28T14:39:26.979Z,6.07
2022-08-28T14:41:55.040Z,7.63
2022-08-28T14:44:24.919Z,9.55
2022-08-28T14:46:57.259Z,5.25
2022-08-28T14:49:26.118Z,8.13
2022-08-28T14:51:55.090Z,5.88
2022-08-28T14:54:25.499Z,9.00
2022-08-28T14:59:26.623Z,9.32
2022-08-28T15:02:00.696Z,9.40
2022-08-28T15:04:37.910Z,4.22
2022-08-28T15:07:10.969Z,4.90
2022-08-28T15:09:41.136Z,6.30
2022-08-28T15:12:09.657Z,7.03
2022-08-28T15:14:37.577Z,7.43
2022-08-28T15:17:05.692Z,4.78
2022-08-28T15:19:36.284Z,6.65
2022-08-28T15:22:04.563Z,6.25
2022-08-28T15:24:34.604Z,8.13
2022-08-28T15:27:02.957Z,7.43
2022-08-28T15:29:35.355Z,5.20
2022-08-28T15:32:04.049Z,9.18
2022-08-28T15:34:36.701Z,5.43
2022-08-28T15:37:07.718Z,7.97
2022-08-28T15:39:56.805Z,6.35
2022-08-28T15:42:24.406Z,7.60
2022-08-28T15:44:51.503Z,6.68
2022-08-28T15:47:19.408Z,4.55
2022-08-28T15:50:03.049Z,11.23
2022-08-28T15:52:35.565Z,8.07
2022-08-28T15:55:02.781Z,4.43
2022-08-28T15:57:30.481Z,8.73
2022-08-28T15:59:57.871Z,5.78
2022-08-28T16:02:25.655Z,8.48
2022-08-28T16:04:56.485Z,8.52
2022-08-28T16:07:26.074Z,4.82
2022-08-28T16:09:53.912Z,4.97
2022-08-28T16:12:21.461Z,7.35
2022-08-28T16:14:50.459Z,8.35
2022-08-28T16:17:17.610Z,8.85
2022-08-28T16:19:45.594Z,7.63
2022-08-28T16:22:18.266Z,9.70
2022-08-28T16:24:49.563Z,9.18
2022-08-28T16:27:18.280Z,9.93
2022-08-28T16:29:46.599Z,7.03
2022-08-28T16:32:19.395Z,8.60
2022-08-28T16:34:47.361Z,15.77
2022-08-28T16:37:19.435Z,8.48
2022-08-28T16:39:49.427Z,5.75
2022-08-28T16:42:20.297Z,7.72
2022-08-28T16:44:55.465Z,10.30
2022-08-28T16:47:23.469Z,8.10
2022-08-28T16:49:53.240Z,5.47
2022-08-28T16:52:21.062Z,6.20
2022-08-28T16:54:52.312Z,5.43
2022-08-28T16:57:24.420Z,6.43
2022-08-28T16:59:53.647Z,5.88
2022-08-28T17:02:26.623Z,6.10
2022-08-28T17:04:56.008Z,7.35
2022-08-28T17:07:24.000Z,9.20
2022-08-28T17:09:51.480Z,7.82
2022-08-28T17:12:22.107Z,7.82
2022-08-28T17:14:52.986Z,9.20
2022-08-28T17:17:20.915Z,6.03
2022-08-28T17:19:48.212Z,7.95
2022-08-28T17:22:37.074Z,8.15
2022-08-28T17:25:08.001Z,7.80
2022-08-28T17:27:39.391Z,6.88
2022-08-28T17:30:10.220Z,6.68
2022-08-28T17:32:37.967Z,9.63
2022-08-28T17:35:06.939Z,10.25
2022-08-28T17:37:34.134Z,11.43
2022-08-28T17:40:08.274Z,11.00
2022-08-28T17:42:36.893Z,7.38
2022-08-28T17:45:06.005Z,8.38
2022-08-28T17:47:36.712Z,7.65
2022-08-28T17:52:32.806Z,9.73
2022-08-28T17:55:02.029Z,7.22
2022-08-28T17:57:30.844Z,7.60
2022-08-28T18:00:05.229Z,10.32
2022-08-28T18:02:35.340Z,6.95
2022-08-28T18:05:05.692Z,8.98
2022-08-28T18:07:33.496Z,10.95
2022-08-28T18:10:05.960Z,10.38
2022-08-28T18:12:33.765Z,7.40
2022-08-28T18:15:05.896Z,6.00
2022-08-28T18:17:33.691Z,8.30
2022-08-28T18:20:01.018Z,6.35
2022-08-28T18:22:29.956Z,8.40
2022-08-28T18:24:58.516Z,9.23
2022-08-28T18:27:27.989Z,6.05
2022-08-28T18:29:56.033Z,8.90
2022-08-28T18:32:31.806Z,7.18
2022-08-28T18:34:59.042Z,6.00
2022-08-28T18:37:26.587Z,7.85
2022-08-28T18:39:54.451Z,8.50
2022-08-28T18:42:23.706Z,7.15
2022-08-28T18:44:51.692Z,8.77
2022-08-28T18:47:18.924Z,8.25
2022-08-28T18:49:46.816Z,8.15
2022-08-28T18:52:14.039Z,10.25
2022-08-28T18:54:47.566Z,7.20
2022-08-28T18:57:20.706Z,8.77
2022-08-28T18:59:53.516Z,8.10
2022-08-28T19:02:21.732Z,8.40
2022-08-28T19:05:15.067Z,14.38
2022-08-28T19:07:42.619Z,9.07
2022-08-28T19:10:31.790Z,9.35
2022-08-28T19:13:01.975Z,10.75
2022-08-28T19:15:32.729Z,10.00
2022-08-28T19:18:01.583Z,13.32
2022-08-28T19:20:30.567Z,18.05
2022-08-28T19:22:58.657Z,9.55
2022-08-28T19:25:31.014Z,9.60
2022-08-28T19:28:01.453Z,10.43
2022-08-28T19:30:33.298Z,9.00
2022-08-28T19:33:04.256Z,12.18
2022-08-28T19:35:31.945Z,10.90
2022-08-28T19:38:01.727Z,9.10
2022-08-28T19:40:33.762Z,11.57
2022-08-28T19:43:02.251Z,10.02
2022-08-28T19:45:32.725Z,11.68
2022-08-28T19:48:03.542Z,9.20
2022-08-28T19:50:30.751Z,10.75
2022-08-28T19:52:58.205Z,11.00
2022-08-28T19:55:34.385Z,10.65
2022-08-28T19:58:05.521Z,8.50
2022-08-28T20:00:36.675Z,9.38
2022-08-28T20:03:07.313Z,10.27
2022-08-28T20:05:43.509Z,7.20
2022-08-28T20:08:13.269Z,10.25
2022-08-28T20:10:44.611Z,10.20
2022-08-28T20:13:14.443Z,8.02
2022-08-28T20:15:46.638Z,9.52
2022-08-28T20:18:16.599Z,11.70
2022-08-28T20:20:49.692Z,9.65
2022-08-28T20:23:19.497Z,9.23
2022-08-28T20:25:52.477Z,13.82
2022-08-28T20:28:20.349Z,12.73
2022-08-28T20:30:57.128Z,10.50
2022-08-28T20:33:33.476Z,8.80
2022-08-28T20:36:08.572Z,9.80
2022-08-28T20:38:45.015Z,12.73
2022-08-28T20:41:20.685Z,11.18
2022-08-28T20:43:51.982Z,10.15
2022-08-28T20:46:20.256Z,12.25
2022-08-28T20:48:48.499Z,10.90
2022-08-28T20:51:16.248Z,13.82
2022-08-28T20:53:52.392Z,12.13
2022-08-28T20:56:25.290Z,8.43
2022-08-28T20:58:55.300Z,14.90
2022-08-28T21:01:29.114Z,11.30
2022-08-28T21:03:58.135Z,12.52
2022-08-28T21:06:29.671Z,16.23
2022-08-28T21:08:58.470Z,16.20
2022-08-28T21:11:30.315Z,13.50
2022-08-28T21:14:01.139Z,12.95
2022-08-28T21:16:31.276Z,12.93
2022-08-28T21:19:15.172Z,21.92
2022-08-28T21:21:46.880Z,9.50
2022-08-28T21:24:17.124Z,12.52
2022-08-28T21:26:46.782Z,10.35
2022-08-28T21:29:20.198Z,12.20
2022-08-28T21:31:55.515Z,13.05
2022-08-28T21:34:23.899Z,8.82
2022-08-28T21:36:55.187Z,10.65
2022-08-28T21:39:22.930Z,9.82
2022-08-28T21:41:56.158Z,11.13
2022-08-28T21:44:25.824Z,9.38
2022-08-28T21:46:53.515Z,11.10
2022-08-28T21:49:23.293Z,11.38
2022-08-28T21:51:51.325Z,10.05
2022-08-28T21:54:20.255Z,10.18
2022-08-28T21:56:48.362Z,14.32
2022-08-28T21:59:33.103Z,13.63
2022-08-28T22:02:06.236Z,9.85
2022-08-28T22:04:36.218Z,14.73
2022-08-28T22:07:04.142Z,13.25
2022-08-28T22:09:38.462Z,10.85
2022-08-28T22:12:06.567Z,9.70
2022-08-28T22:14:48.099Z,15.07
2022-08-28T22:17:17.096Z,14.07
2022-08-28T22:19:46.510Z,12.57
2022-08-28T22:22:34.228Z,12.57
2022-08-28T22:25:04.332Z,13.48
2022-08-28T22:27:37.281Z,13.68
2022-08-28T22:30:08.254Z,12.73
2022-08-28T22:32:39.285Z,11.55
2022-08-28T22:35:07.903Z,11.70
2022-08-28T22:37:40.626Z,10.95
2022-08-28T22:40:17.918Z,12.95
2022-08-28T22:42:55.067Z,13.10
2022-08-28T22:45:28.018Z,15.05
2022-08-28T22:47:56.005Z,16.25
2022-08-28T22:50:29.610Z,17.70
2022-08-28T22:52:57.594Z,13.68
2022-08-28T22:55:25.412Z,15.05
2022-08-28T22:57:54.071Z,11.50
2022-08-28T23:00:28.813Z,11.95
2022-08-28T23:02:57.256Z,10.88
2022-08-28T23:05:27.866Z,16.13
2022-08-28T23:07:56.643Z,11.73
2022-08-28T23:10:57.593Z,11.88
2022-08-28T23:13:20.841Z,12.70
2022-08-28T23:15:51.659Z,13.27
2022-08-28T23:18:19.347Z,10.32
2022-08-28T23:20:52.302Z,9.82
2022-08-28T23:23:20.253Z,13.68
2022-08-28T23:25:52.690Z,14.30
2022-08-28T23:28:20.435Z,16.67
2022-08-28T23:30:50.093Z,13.85
2022-08-28T23:33:23.597Z,13.57
2022-08-28T23:35:52.639Z,12.85
2022-08-28T23:38:20.086Z,12.27
2022-08-28T23:40:51.027Z,14.18
2022-08-28T23:43:21.035Z,16.60
2022-08-28T23:45:52.208Z,15.88
2022-08-28T23:48:29.531Z,16.75
2022-08-28T23:50:56.971Z,19.38
2022-08-28T23:53:25.017Z,16.90
2022-08-28T23:55:59.683Z,15.60
2022-08-28T23:58:31.902Z,14.68
